Wetterdaten: Woche 27.09.10 - 03.10.10 (KW39)
Datum Zeit Temp. A. Feuchte A. Luftdruck Regen Wind Richtung Taupunkt Windchill Windben
27.09.2010 00:00 5,3 C 91 % 1010,7 hPa 0,0 l/m 0,0 km/h N-NO 4,0 C 5,3 C 0,0 km/h
27.09.2010 01:00 4,7 C 91 % 1010,5 hPa 0,0 l/m 0,0 km/h NO 3,4 C 4,7 C 0,0 km/h
27.09.2010 02:00 4,2 C 91 % 1010,5 hPa 0,0 l/m 0,0 km/h NO 2,9 C 4,2 C 0,0 km/h
27.09.2010 03:00 3,9 C 92 % 1010,1 hPa 0,4 l/m 0,0 km/h SO 2,7 C 3,9 C 0,0 km/h
27.09.2010 04:00 3,9 C 92 % 1010,2 hPa 0,0 l/m 0,0 km/h SO 2,7 C 3,9 C 0,0 km/h
27.09.2010 05:00 3,6 C 92 % 1010,2 hPa 0,0 l/m 0,0 km/h SO 2,4 C 3,6 C 0,0 km/h
27.09.2010 06:00 3,2 C 92 % 1010,1 hPa 0,0 l/m 0,0 km/h S-SO 2,0 C 3,2 C 0,0 km/h
27.09.2010 07:00 2,9 C 92 % 1010,3 hPa 0,0 l/m 0,0 km/h SO 1,7 C 2,9 C 0,0 km/h
27.09.2010 08:00 3,9 C 92 % 1010,0 hPa 0,0 l/m 0,0 km/h SO 2,7 C 3,9 C 0,0 km/h
27.09.2010 09:00 9,1 C 93 % 1010,3 hPa 0,0 l/m 3,2 km/h W-SW 8,0 C 9,1 C 1,8 km/h
27.09.2010 10:00 15,9 C 67 % 1010,6 hPa 0,0 l/m 13,0 km/h W-SW 9,8 C 12,9 C 7,2 km/h
27.09.2010 11:00 15,6 C 62 % 1010,5 hPa 0,0 l/m 11,0 km/h W 8,3 C 13,4 C 6,1 km/h
27.09.2010 12:00 17,1 C 57 % 1010,5 hPa 0,0 l/m 24,0 km/h W-SW 8,5 C 11,6 C 13,3 km/h
27.09.2010 13:00 14,2 C 63 % 1010,3 hPa 0,0 l/m 35,6 km/h W 7,3 C 5,7 C 19,8 km/h
27.09.2010 14:00 14,9 C 61 % 1010,3 hPa 0,0 l/m 2,6 km/h W-SW 7,4 C 14,9 C 1,4 km/h
27.09.2010 15:00 15,7 C 57 % 1010,2 hPa 0,0 l/m 22,7 km/h W-SW 7,2 C 10,0 C 12,6 km/h
27.09.2010 16:00 13,6 C 64 % 1010,4 hPa 0,0 l/m 0,0 km/h O-NO 6,9 C 13,6 C 0,0 km/h
27.09.2010 17:00 14,5 C 68 % 1010,5 hPa 0,0 l/m 0,0 km/h O-NO 8,7 C 14,5 C 0,0 km/h
27.09.2010 18:00 12,9 C 72 % 1010,9 hPa 0,0 l/m 0,0 km/h O-SO 8,0 C 12,9 C 0,0 km/h
27.09.2010 19:00 11,2 C 80 % 1011,4 hPa 0,0 l/m 0,0 km/h N-NO 7,9 C 11,2 C 0,0 km/h
27.09.2010 20:00 9,1 C 85 % 1012,0 hPa 0,0 l/m 0,0 km/h NO 6,7 C 9,1 C 0,0 km/h
27.09.2010 21:00 8,8 C 87 % 1012,6 hPa 0,0 l/m 0,0 km/h O-SO 6,8 C 8,8 C 0,0 km/h
27.09.2010 22:00 8,6 C 88 % 1013,0 hPa 0,0 l/m 0,0 km/h O-NO 6,7 C 8,6 C 0,0 km/h
27.09.2010 23:00 8,3 C 89 % 1013,1 hPa 0,0 l/m 0,0 km/h NO 6,6 C 8,3 C 0,0 km/h
28.09.2010 00:00 7,6 C 90 % 1013,5 hPa 0,0 l/m 0,0 km/h NO 6,1 C 7,6 C 0,0 km/h
28.09.2010 01:00 6,7 C 90 % 1013,5 hPa 0,0 l/m 0,0 km/h O-NO 5,2 C 6,7 C 0,0 km/h
28.09.2010 02:00 7,0 C 90 % 1013,6 hPa 0,0 l/m 0,0 km/h O-NO 5,5 C 7,0 C 0,0 km/h
28.09.2010 03:00 7,0 C 90 % 1013,9 hPa 0,0 l/m 0,0 km/h N-NO 5,5 C 7,0 C 0,0 km/h
28.09.2010 04:00 6,6 C 91 % 1013,7 hPa 0,0 l/m 0,0 km/h N 5,2 C 6,6 C 0,0 km/h
28.09.2010 05:00 6,4 C 91 % 1013,8 hPa 0,0 l/m 0,0 km/h N 5,0 C 6,4 C 0,0 km/h
28.09.2010 06:00 6,3 C 91 % 1014,4 hPa 0,0 l/m 0,0 km/h N-NW 4,9 C 6,3 C 0,0 km/h
28.09.2010 07:00 6,4 C 91 % 1014,2 hPa 0,0 l/m 0,0 km/h O-NO 5,0 C 6,4 C 0,0 km/h
28.09.2010 08:00 7,2 C 91 % 1014,6 hPa 0,0 l/m 0,0 km/h N-NO 5,8 C 7,2 C 0,0 km/h
28.09.2010 09:00 8,4 C 90 % 1015,0 hPa 0,0 l/m 0,0 km/h W-NW 6,9 C 8,4 C 0,0 km/h
28.09.2010 10:00 11,4 C 81 % 1015,5 hPa 0,0 l/m 0,0 km/h W 8,3 C 11,4 C 0,0 km/h
28.09.2010 11:00 14,0 C 72 % 1015,8 hPa 0,0 l/m 6,5 km/h W-SW 9,0 C 14,0 C 3,6 km/h
28.09.2010 12:00 14,6 C 66 % 1015,9 hPa 0,0 l/m 1,3 km/h W 8,3 C 14,6 C 0,7 km/h
28.09.2010 13:00 13,8 C 66 % 1016,2 hPa 0,0 l/m 3,9 km/h SW 7,6 C 13,8 C 2,2 km/h
28.09.2010 14:00 14,4 C 64 % 1016,3 hPa 0,0 l/m 0,0 km/h W 7,7 C 14,4 C 0,0 km/h
28.09.2010 15:00 14,8 C 64 % 1016,4 hPa 0,0 l/m 0,0 km/h W-SW 8,1 C 14,8 C 0,0 km/h
28.09.2010 16:00 13,8 C 67 % 1016,5 hPa 0,0 l/m 0,0 km/h S-SW 7,8 C 13,8 C 0,0 km/h
28.09.2010 17:00 12,9 C 71 % 1016,7 hPa 0,0 l/m 0,0 km/h S-SW 7,8 C 12,9 C 0,0 km/h
28.09.2010 18:00 11,8 C 79 % 1016,8 hPa 0,0 l/m 0,0 km/h SO 8,3 C 11,8 C 0,0 km/h
28.09.2010 19:00 10,9 C 82 % 1017,4 hPa 0,0 l/m 0,0 km/h O-SO 7,9 C 10,9 C 0,0 km/h
28.09.2010 20:00 10,3 C 84 % 1017,5 hPa 0,0 l/m 0,0 km/h O 7,7 C 10,3 C 0,0 km/h
28.09.2010 21:00 10,1 C 85 % 1017,7 hPa 0,0 l/m 0,0 km/h O-NO 7,7 C 10,1 C 0,0 km/h
28.09.2010 22:00 9,8 C 86 % 1018,0 hPa 0,0 l/m 0,0 km/h O-SO 7,6 C 9,8 C 0,0 km/h
28.09.2010 23:00 9,4 C 87 % 1018,0 hPa 0,0 l/m 0,0 km/h O-SO 7,3 C 9,4 C 0,0 km/h
29.09.2010 00:00 9,3 C 88 % 1018,2 hPa 0,0 l/m 0,0 km/h O 7,4 C 9,3 C 0,0 km/h
29.09.2010 01:00 9,4 C 88 % 1017,9 hPa 0,0 l/m 0,0 km/h SO 7,5 C 9,4 C 0,0 km/h
29.09.2010 02:00 9,2 C 88 % 1017,7 hPa 0,0 l/m 0,0 km/h SO 7,3 C 9,2 C 0,0 km/h
29.09.2010 03:00 9,4 C 89 % 1017,7 hPa 0,0 l/m 0,0 km/h SO 7,7 C 9,4 C 0,0 km/h
29.09.2010 04:00 9,2 C 89 % 1017,4 hPa 0,0 l/m 0,0 km/h O-NO 7,5 C 9,2 C 0,0 km/h
29.09.2010 05:00 9,3 C 89 % 1017,3 hPa 0,0 l/m 0,0 km/h O-SO 7,6 C 9,3 C 0,0 km/h
29.09.2010 06:00 9,3 C 90 % 1017,2 hPa 0,0 l/m 0,0 km/h O-SO 7,7 C 9,3 C 0,0 km/h
29.09.2010 07:00 9,4 C 89 % 1017,4 hPa 0,0 l/m 0,0 km/h SO 7,7 C 9,4 C 0,0 km/h
29.09.2010 08:00 9,9 C 89 % 1017,4 hPa 0,0 l/m 0,0 km/h SO 8,2 C 9,9 C 0,0 km/h
29.09.2010 09:00 10,8 C 87 % 1017,6 hPa 0,0 l/m 0,0 km/h SO 8,7 C 10,8 C 0,0 km/h
29.09.2010 10:00 12,1 C 84 % 1017,8 hPa 0,0 l/m 0,0 km/h O 9,5 C 12,1 C 0,0 km/h
29.09.2010 11:00 14,0 C 76 % 1017,8 hPa 0,0 l/m 0,0 km/h W-NW 9,8 C 14,0 C 0,0 km/h
29.09.2010 12:00 16,8 C 65 % 1017,8 hPa 0,0 l/m 0,0 km/h NO 10,2 C 16,8 C 0,0 km/h
29.09.2010 13:00 16,8 C 63 % 1017,6 hPa 0,0 l/m 0,0 km/h W 9,7 C 16,8 C 0,0 km/h
29.09.2010 14:00 16,3 C 64 % 1017,2 hPa 0,0 l/m 0,0 km/h W 9,5 C 16,3 C 0,0 km/h
29.09.2010 15:00 18,8 C 55 % 1016,9 hPa 0,0 l/m 0,0 km/h W-SW 9,6 C 18,8 C 0,0 km/h
29.09.2010 16:00 17,3 C 59 % 1016,9 hPa 0,0 l/m 2,6 km/h W 9,2 C 17,3 C 1,4 km/h
29.09.2010 17:00 15,3 C 67 % 1016,8 hPa 0,0 l/m 0,0 km/h W 9,2 C 15,3 C 0,0 km/h
29.09.2010 18:00 13,5 C 76 % 1017,1 hPa 0,0 l/m 0,0 km/h NW 9,4 C 13,5 C 0,0 km/h
29.09.2010 19:00 11,3 C 82 % 1017,0 hPa 0,0 l/m 0,0 km/h O-NO 8,3 C 11,3 C 0,0 km/h
29.09.2010 20:00 9,8 C 87 % 1017,2 hPa 0,0 l/m 0,0 km/h O-NO 7,7 C 9,8 C 0,0 km/h
29.09.2010 21:00 8,9 C 88 % 1017,5 hPa 0,0 l/m 0,0 km/h O-SO 7,0 C 8,9 C 0,0 km/h
29.09.2010 22:00 9,1 C 89 % 1017,3 hPa 0,0 l/m 0,0 km/h SO 7,4 C 9,1 C 0,0 km/h
29.09.2010 23:00 8,2 C 90 % 1017,0 hPa 0,0 l/m 0,0 km/h NO 6,7 C 8,2 C 0,0 km/h
30.09.2010 00:00 8,3 C 91 % 1017,3 hPa 0,0 l/m 0,0 km/h NO 6,9 C 8,3 C 0,0 km/h
30.09.2010 01:00 8,4 C 91 % 1017,1 hPa 0,0 l/m 0,0 km/h SO 7,0 C 8,4 C 0,0 km/h
30.09.2010 02:00 8,8 C 91 % 1016,4 hPa 0,0 l/m 0,0 km/h SO 7,4 C 8,8 C 0,0 km/h
30.09.2010 03:00 9,1 C 90 % 1016,3 hPa 0,0 l/m 0,0 km/h SO 7,5 C 9,1 C 0,0 km/h
30.09.2010 04:00 9,4 C 90 % 1016,2 hPa 0,0 l/m 0,0 km/h SO 7,8 C 9,4 C 0,0 km/h
30.09.2010 05:00 9,4 C 90 % 1016,1 hPa 0,0 l/m 0,0 km/h O-SO 7,8 C 9,4 C 0,0 km/h
30.09.2010 06:00 9,4 C 90 % 1016,0 hPa 0,4 l/m 0,0 km/h O-SO 7,8 C 9,4 C 0,0 km/h
30.09.2010 07:00 9,6 C 91 % 1015,7 hPa 0,0 l/m 0,0 km/h O-SO 8,2 C 9,6 C 0,0 km/h
30.09.2010 08:00 10,2 C 91 % 1015,6 hPa 0,0 l/m 0,0 km/h SO 8,8 C 10,2 C 0,0 km/h
30.09.2010 09:00 11,7 C 90 % 1015,8 hPa 0,0 l/m 0,0 km/h SO 10,1 C 11,7 C 0,0 km/h
30.09.2010 10:00 13,6 C 86 % 1015,6 hPa 0,0 l/m 0,0 km/h S-SO 11,3 C 13,6 C 0,0 km/h
30.09.2010 11:00 14,9 C 81 % 1015,5 hPa 0,0 l/m 0,0 km/h W-SW 11,7 C 14,9 C 0,0 km/h
30.09.2010 12:00 17,9 C 72 % 1014,8 hPa 0,0 l/m 0,0 km/h W 12,8 C 17,9 C 0,0 km/h
30.09.2010 13:00 18,9 C 67 % 1014,8 hPa 0,0 l/m 0,0 km/h NW 12,6 C 18,9 C 0,0 km/h
30.09.2010 14:00 20,1 C 64 % 1014,3 hPa 0,0 l/m 1,9 km/h S-SO 13,1 C 20,1 C 1,1 km/h
30.09.2010 15:00 22,1 C 60 % 1013,5 hPa 0,0 l/m 3,9 km/h W 14,0 C 22,1 C 2,2 km/h
30.09.2010 16:00 18,2 C 66 % 1013,3 hPa 0,0 l/m 0,6 km/h W 11,7 C 18,2 C 0,4 km/h
30.09.2010 17:00 16,9 C 75 % 1013,2 hPa 0,0 l/m 0,0 km/h W 12,4 C 16,9 C 0,0 km/h
30.09.2010 18:00 15,4 C 82 % 1013,2 hPa 0,0 l/m 0,0 km/h NO 12,3 C 15,4 C 0,0 km/h
30.09.2010 19:00 13,8 C 87 % 1013,3 hPa 0,0 l/m 0,0 km/h S 11,7 C 13,8 C 0,0 km/h
30.09.2010 20:00 13,3 C 87 % 1013,6 hPa 0,0 l/m 0,0 km/h N-NO 11,2 C 13,3 C 0,0 km/h
30.09.2010 21:00 12,6 C 89 % 1013,5 hPa 0,4 l/m 0,0 km/h O-NO 10,8 C 12,6 C 0,0 km/h
30.09.2010 22:00 12,4 C 90 % 1013,7 hPa 0,0 l/m 0,0 km/h SO 10,8 C 12,4 C 0,0 km/h
30.09.2010 23:00 12,4 C 90 % 1013,6 hPa 0,0 l/m 0,0 km/h SO 10,8 C 12,4 C 0,0 km/h
01.10.2010 00:00 12,2 C 91 % 1013,4 hPa 1,1 l/m 7,1 km/h SO 10,8 C 11,7 C 4,0 km/h
01.10.2010 01:00 12,3 C 91 % 1013,1 hPa 0,7 l/m 0,0 km/h SW 10,9 C 12,3 C 0,0 km/h
01.10.2010 02:00 12,4 C 91 % 1013,1 hPa 0,7 l/m 0,0 km/h SW 11,0 C 12,4 C 0,0 km/h
01.10.2010 03:00 12,3 C 91 % 1013,0 hPa 0,4 l/m 2,6 km/h W-SW 10,9 C 12,3 C 1,4 km/h
01.10.2010 04:00 12,2 C 91 % 1013,1 hPa 0,0 l/m 2,6 km/h W 10,8 C 12,2 C 1,4 km/h
01.10.2010 05:00 11,8 C 91 % 1013,1 hPa 0,4 l/m 0,0 km/h W 10,4 C 11,8 C 0,0 km/h
01.10.2010 06:00 11,6 C 91 % 1013,2 hPa 0,0 l/m 0,0 km/h NW 10,2 C 11,6 C 0,0 km/h
01.10.2010 07:00 11,4 C 91 % 1013,6 hPa 0,0 l/m 0,0 km/h S-SO 10,0 C 11,4 C 0,0 km/h
01.10.2010 08:00 11,4 C 91 % 1013,9 hPa 0,0 l/m 0,0 km/h W-SW 10,0 C 11,4 C 0,0 km/h
01.10.2010 09:00 12,1 C 88 % 1014,3 hPa 0,0 l/m 6,5 km/h SW 10,2 C 12,1 C 3,6 km/h
01.10.2010 10:00 15,3 C 80 % 1014,5 hPa 0,0 l/m 8,4 km/h SW 11,9 C 14,2 C 4,7 km/h
01.10.2010 11:00 17,7 C 69 % 1014,3 hPa 0,0 l/m 3,2 km/h SO 11,9 C 17,7 C 1,8 km/h
01.10.2010 12:00 23,1 C 56 % 1014,0 hPa 0,0 l/m 1,9 km/h W-SW 13,8 C 23,1 C 1,1 km/h
01.10.2010 13:00 20,4 C 58 % 1013,6 hPa 0,0 l/m 4,5 km/h SO 11,9 C 20,4 C 2,5 km/h
01.10.2010 14:00 21,0 C 55 % 1013,0 hPa 0,0 l/m 0,0 km/h W-SW 11,6 C 21,0 C 0,0 km/h
01.10.2010 15:00 23,1 C 46 % 1012,7 hPa 0,0 l/m 0,0 km/h NO 10,8 C 23,1 C 0,0 km/h
01.10.2010 16:00 24,6 C 40 % 1012,3 hPa 0,0 l/m 0,0 km/h W-NW 10,1 C 24,6 C 0,0 km/h
01.10.2010 17:00 24,8 C 39 % 1011,9 hPa 0,0 l/m 0,0 km/h N 9,9 C 24,8 C 0,0 km/h
01.10.2010 18:00 19,8 C 54 % 1012,0 hPa 0,0 l/m 0,0 km/h SO 10,2 C 19,8 C 0,0 km/h
01.10.2010 19:00 11,8 C 78 % 1012,5 hPa 0,0 l/m 0,0 km/h SO 8,1 C 11,8 C 0,0 km/h
01.10.2010 20:00 10,3 C 84 % 1012,5 hPa 0,0 l/m 0,0 km/h O-NO 7,7 C 10,3 C 0,0 km/h
01.10.2010 21:00 9,8 C 87 % 1012,5 hPa 0,0 l/m 0,0 km/h S-SW 7,7 C 9,8 C 0,0 km/h
01.10.2010 22:00 9,2 C 88 % 1012,6 hPa 0,0 l/m 0,0 km/h O 7,3 C 9,2 C 0,0 km/h
01.10.2010 23:00 9,1 C 88 % 1012,6 hPa 0,0 l/m 0,0 km/h SO 7,2 C 9,1 C 0,0 km/h
02.10.2010 00:00 9,4 C 88 % 1012,5 hPa 0,0 l/m 0,0 km/h SO 7,5 C 9,4 C 0,0 km/h
02.10.2010 01:00 9,5 C 88 % 1012,4 hPa 0,0 l/m 0,0 km/h SO 7,6 C 9,5 C 0,0 km/h
02.10.2010 02:00 9,6 C 88 % 1012,5 hPa 0,0 l/m 0,0 km/h O-SO 7,7 C 9,6 C 0,0 km/h
02.10.2010 03:00 9,6 C 89 % 1012,7 hPa 0,0 l/m 0,0 km/h NO 7,9 C 9,6 C 0,0 km/h
02.10.2010 04:00 9,9 C 89 % 1012,3 hPa 0,0 l/m 0,0 km/h S-SO 8,2 C 9,9 C 0,0 km/h
02.10.2010 05:00 10,1 C 90 % 1012,3 hPa 0,0 l/m 0,0 km/h SO 8,5 C 10,1 C 0,0 km/h
02.10.2010 06:00 10,4 C 89 % 1012,1 hPa 0,0 l/m 0,0 km/h O-NO 8,7 C 10,4 C 0,0 km/h
02.10.2010 07:00 10,6 C 90 % 1012,1 hPa 0,4 l/m 0,0 km/h SO 9,0 C 10,6 C 0,0 km/h
02.10.2010 08:00 11,0 C 90 % 1012,6 hPa 0,0 l/m 0,0 km/h N-NO 9,4 C 11,0 C 0,0 km/h
02.10.2010 09:00 12,5 C 90 % 1012,7 hPa 0,4 l/m 0,0 km/h O-SO 10,9 C 12,5 C 0,0 km/h
02.10.2010 10:00 15,3 C 85 % 1013,1 hPa 0,0 l/m 0,0 km/h O-SO 12,8 C 15,3 C 0,0 km/h
02.10.2010 11:00 16,4 C 84 % 1013,1 hPa 0,0 l/m 0,0 km/h S 13,7 C 16,4 C 0,0 km/h
02.10.2010 12:00 17,9 C 78 % 1013,3 hPa 0,0 l/m 0,0 km/h W 14,0 C 17,9 C 0,0 km/h
02.10.2010 13:00 20,4 C 55 % 1013,0 hPa 0,0 l/m 11,0 km/h S 11,1 C 18,8 C 6,1 km/h
02.10.2010 14:00 19,6 C 58 % 1012,8 hPa 0,0 l/m 3,9 km/h S 11,1 C 19,6 C 2,2 km/h
02.10.2010 15:00 21,8 C 56 % 1012,4 hPa 0,0 l/m 1,9 km/h S 12,6 C 21,8 C 1,1 km/h
02.10.2010 16:00 20,9 C 58 % 1012,1 hPa 0,0 l/m 0,0 km/h O-NO 12,3 C 20,9 C 0,0 km/h
02.10.2010 17:00 28,3 C 45 % 1011,7 hPa 0,0 l/m 0,0 km/h NO 15,2 C 28,3 C 0,0 km/h
02.10.2010 18:00 20,9 C 62 % 1011,6 hPa 0,0 l/m 0,0 km/h SO 13,3 C 20,9 C 0,0 km/h
02.10.2010 19:00 14,4 C 79 % 1011,3 hPa 0,0 l/m 0,0 km/h SO 10,8 C 14,4 C 0,0 km/h
02.10.2010 20:00 13,1 C 84 % 1011,8 hPa 0,0 l/m 0,0 km/h SO 10,5 C 13,1 C 0,0 km/h
02.10.2010 21:00 12,8 C 86 % 1011,6 hPa 0,0 l/m 0,0 km/h O-NO 10,5 C 12,8 C 0,0 km/h
02.10.2010 22:00 12,3 C 87 % 1011,2 hPa 0,0 l/m 0,0 km/h O 10,2 C 12,3 C 0,0 km/h
02.10.2010 23:00 12,1 C 88 % 1011,4 hPa 0,0 l/m 0,0 km/h O-NO 10,2 C 12,1 C 0,0 km/h
03.10.2010 00:00 11,3 C 89 % 1011,2 hPa 0,0 l/m 0,0 km/h N-NO 9,6 C 11,3 C 0,0 km/h
03.10.2010 01:00 10,2 C 90 % 1010,5 hPa 0,0 l/m 0,0 km/h N-NO 8,6 C 10,2 C 0,0 km/h
03.10.2010 02:00 9,8 C 90 % 1010,6 hPa 0,0 l/m 0,0 km/h N-NO 8,2 C 9,8 C 0,0 km/h
03.10.2010 03:00 9,8 C 91 % 1010,3 hPa 0,0 l/m 0,0 km/h N-NO 8,4 C 9,8 C 0,0 km/h
03.10.2010 04:00 10,4 C 91 % 1009,9 hPa 0,0 l/m 0,0 km/h O-SO 9,0 C 10,4 C 0,0 km/h
03.10.2010 05:00 9,7 C 91 % 1009,6 hPa 0,0 l/m 0,0 km/h O-NO 8,3 C 9,7 C 0,0 km/h
03.10.2010 06:00 9,3 C 91 % 1009,5 hPa 0,0 l/m 0,0 km/h O-NO 7,9 C 9,3 C 0,0 km/h
03.10.2010 07:00 8,9 C 92 % 1009,6 hPa 0,0 l/m 0,0 km/h SO 7,7 C 8,9 C 0,0 km/h
03.10.2010 08:00 10,1 C 91 % 1010,1 hPa 0,0 l/m 0,0 km/h SO 8,7 C 10,1 C 0,0 km/h
03.10.2010 09:00 14,1 C 90 % 1009,9 hPa 0,0 l/m 4,5 km/h SO 12,5 C 14,1 C 2,5 km/h
03.10.2010 10:00 21,6 C 70 % 1009,2 hPa 0,0 l/m 3,9 km/h NW 15,9 C 21,6 C 2,2 km/h
03.10.2010 11:00 25,5 C 56 % 1008,7 hPa 0,0 l/m 0,0 km/h W-NW 16,1 C 25,5 C 0,0 km/h
03.10.2010 12:00 25,4 C 54 % 1008,3 hPa 0,0 l/m 0,6 km/h S-SW 15,4 C 25,4 C 0,4 km/h
03.10.2010 13:00 25,8 C 55 % 1007,0 hPa 0,0 l/m 0,0 km/h W-SW 16,1 C 25,8 C 0,0 km/h
03.10.2010 14:00 26,8 C 54 % 1006,2 hPa 0,0 l/m 5,2 km/h W 16,7 C 26,8 C 2,9 km/h
03.10.2010 15:00 29,3 C 49 % 1005,4 hPa 0,0 l/m 0,0 km/h W 17,5 C 29,3 C 0,0 km/h
03.10.2010 16:00 30,1 C 45 % 1004,9 hPa 0,0 l/m 1,3 km/h W-NW 16,8 C 30,1 C 0,7 km/h
03.10.2010 17:00 31,0 C 42 % 1004,7 hPa 0,0 l/m 0,0 km/h W-NW 16,6 C 31,0 C 0,0 km/h
03.10.2010 18:00 26,1 C 53 % 1004,1 hPa 0,0 l/m 0,0 km/h O-SO 15,8 C 26,1 C 0,0 km/h
03.10.2010 19:00 17,1 C 79 % 1004,1 hPa 0,0 l/m 0,0 km/h O-SO 13,4 C 17,1 C 0,0 km/h
03.10.2010 20:00 14,6 C 76 % 1004,2 hPa 0,0 l/m 0,0 km/h SO 10,4 C 14,6 C 0,0 km/h
03.10.2010 21:00 13,8 C 73 % 1004,1 hPa 0,0 l/m 0,0 km/h NO 9,0 C 13,8 C 0,0 km/h
03.10.2010 22:00 12,8 C 71 % 1003,8 hPa 0,0 l/m 0,0 km/h N-NO 7,7 C 12,8 C 0,0 km/h
03.10.2010 23:00 12,1 C 71 % 1003,8 hPa 0,0 l/m 0,0 km/h N-NO 7,0 C 12,1 C 0,0 km/h
Min-Datum _ 27.09.10 01.10.10 03.10.10 - 27.09.10 - 27.09.10 27.09.10 27.09.10
_ Min-Zeit 07:30 17:30 22:30 - 00:30 - 07:30 07:30 00:30
Minimum _ 2,9 C 39 % 1003,8 hPa - 0,0 km/h - 1,7 C 2,9 C 0,0 km/h
Max-Datum _ 03.10.10 27.09.10 29.09.10 01.10.10 27.09.10 - 03.10.10 03.10.10 27.09.10
_ Max-Zeit 17:30 09:30 00:30 00:30 13:30 - 15:30 17:30 13:30
Maximum _ 31,0 C 93 % 1018,2 hPa 1,1 l/m 35,6 km/h
W
- 17,5 C 31,0 C 19,8 km/h
W
Durchschnitt _ 13,0 C 79 % 1013,1 hPa #5,0 l/m 1,2 km/h SO 9,1 C 12,9 C 0,7 km/h